createdAt,value
2017-09-08T00:00:55.231Z,74.98
2017-09-08T00:01:55.226Z,74.98
2017-09-08T00:02:55.220Z,75.46
2017-09-08T00:03:55.216Z,75.27
2017-09-08T00:04:55.211Z,75.27
2017-09-08T00:05:55.207Z,76.14
2017-09-08T00:06:55.207Z,76.04
2017-09-08T00:07:55.201Z,76.14
2017-09-08T00:08:55.197Z,76.23
2017-09-08T00:09:55.193Z,75.85
2017-09-08T00:10:55.184Z,75.56
2017-09-08T00:11:55.179Z,75.75
2017-09-08T00:12:55.175Z,76.14
2017-09-08T00:13:55.171Z,75.75
2017-09-08T00:14:55.169Z,75.95
2017-09-08T00:15:55.164Z,76.32
2017-09-08T00:16:55.163Z,75.56
2017-09-08T00:17:55.156Z,75.95
2017-09-08T00:18:55.150Z,76.23
2017-09-08T00:19:55.146Z,76.04
2017-09-08T00:20:55.143Z,75.85
2017-09-08T00:21:55.137Z,76.23
2017-09-08T00:22:55.128Z,75.85
2017-09-08T00:23:55.125Z,75.65
2017-09-08T00:24:55.126Z,75.85
2017-09-08T00:25:55.116Z,75.85
2017-09-08T00:26:55.110Z,76.62
2017-09-08T00:27:55.106Z,76.62
2017-09-08T00:28:55.101Z,76.90
2017-09-08T00:29:55.097Z,76.90
2017-09-08T00:30:55.097Z,76.90
2017-09-08T00:31:55.092Z,76.23
2017-09-08T00:32:55.087Z,76.23
2017-09-08T00:33:55.083Z,76.23
2017-09-08T00:34:55.078Z,76.62
2017-09-08T00:35:55.074Z,76.62
2017-09-08T00:36:55.069Z,76.52
2017-09-08T00:37:55.066Z,76.52
2017-09-08T00:38:55.055Z,76.52
2017-09-08T00:39:55.051Z,76.75
2017-09-08T00:40:55.048Z,76.32
2017-09-08T00:41:55.042Z,76.42
2017-09-08T00:42:55.037Z,76.42
2017-09-08T00:43:55.033Z,76.42
2017-09-08T00:44:55.034Z,77.29
2017-09-08T00:45:55.026Z,76.62
2017-09-08T00:46:55.023Z,76.42
2017-09-08T00:47:55.019Z,76.71
2017-09-08T00:48:55.015Z,76.62
2017-09-08T00:49:55.016Z,77.09
2017-09-08T00:50:55.005Z,77.09
2017-09-08T00:51:55.001Z,77.00
2017-09-08T00:52:54.997Z,77.09
2017-09-08T00:53:54.993Z,77.58
2017-09-08T00:54:54.984Z,77.38
2017-09-08T00:55:54.982Z,77.67
2017-09-08T00:56:54.974Z,77.38
2017-09-08T00:57:54.970Z,77.86
2017-09-08T00:58:54.965Z,77.58
2017-09-08T00:59:54.960Z,77.58
2017-09-08T01:00:54.957Z,77.38
2017-09-08T01:01:54.952Z,77.76
2017-09-08T01:02:54.951Z,77.86
2017-09-08T01:03:54.947Z,77.95
2017-09-08T01:04:54.975Z,78.15
2017-09-08T01:05:54.938Z,78.05
2017-09-08T01:06:54.934Z,77.76
2017-09-08T01:07:54.930Z,77.19
2017-09-08T01:08:54.929Z,77.38
2017-09-08T01:09:54.920Z,77.19
2017-09-08T01:10:54.912Z,77.76
2017-09-08T01:11:54.908Z,78.15
2017-09-08T01:12:54.903Z,78.15
2017-09-08T01:13:54.904Z,78.15
2017-09-08T01:14:54.897Z,78.25
2017-09-08T01:15:54.893Z,77.95
2017-09-08T01:16:54.889Z,78.34
2017-09-08T01:17:54.885Z,78.15
2017-09-08T01:18:54.874Z,77.86
2017-09-08T01:19:54.872Z,77.86
2017-09-08T01:20:54.866Z,78.19
2017-09-08T01:21:54.862Z,78.05
2017-09-08T01:22:54.857Z,78.15
2017-09-08T01:23:54.852Z,77.76
2017-09-08T01:24:54.851Z,78.15
2017-09-08T01:25:54.844Z,78.15
2017-09-08T01:26:54.842Z,77.86
2017-09-08T01:27:54.844Z,77.95
2017-09-08T01:28:54.836Z,77.95
2017-09-08T01:29:54.830Z,77.95
2017-09-08T01:30:54.828Z,78.19
2017-09-08T01:31:54.822Z,77.95
2017-09-08T01:32:54.816Z,77.71
2017-09-08T01:33:54.812Z,77.71
2017-09-08T01:34:54.803Z,78.25
2017-09-08T01:35:54.797Z,77.67
2017-09-08T01:36:54.794Z,77.76
2017-09-08T01:37:54.789Z,77.58
2017-09-08T01:38:54.782Z,78.15
2017-09-08T01:39:54.778Z,78.34
2017-09-08T01:40:54.778Z,78.34
2017-09-08T01:41:54.771Z,78.34
2017-09-08T01:42:54.769Z,78.44
2017-09-08T01:43:54.764Z,78.53
2017-09-08T01:44:54.761Z,78.34
2017-09-08T01:45:54.756Z,78.53
2017-09-08T01:46:54.751Z,78.63
2017-09-08T01:47:54.745Z,78.34
2017-09-08T01:48:54.740Z,78.63
2017-09-08T01:49:54.738Z,78.63
2017-09-08T01:50:54.728Z,78.34
2017-09-08T01:51:54.726Z,78.34
2017-09-08T01:52:54.719Z,79.11
2017-09-08T01:53:54.715Z,78.63
2017-09-08T01:54:54.710Z,78.92
2017-09-08T01:55:54.705Z,78.63
2017-09-08T01:56:54.702Z,78.63
2017-09-08T01:57:54.717Z,78.82
2017-09-08T01:58:54.693Z,78.72
2017-09-08T01:59:54.702Z,78.92
2017-09-08T02:00:54.685Z,78.72
2017-09-08T02:01:54.681Z,78.44
2017-09-08T02:02:54.675Z,78.72
2017-09-08T02:03:54.670Z,78.34
2017-09-08T02:04:54.667Z,78.53
2017-09-08T02:05:54.661Z,78.15
2017-09-08T02:06:54.653Z,78.44
2017-09-08T02:07:54.647Z,78.47
2017-09-08T02:08:54.643Z,78.53
2017-09-08T02:09:54.640Z,78.44
2017-09-08T02:10:54.634Z,78.34
2017-09-08T02:11:54.629Z,78.53
2017-09-08T02:12:54.624Z,78.72
2017-09-08T02:13:54.620Z,78.34
2017-09-08T02:14:54.619Z,78.82
2017-09-08T02:15:54.616Z,78.34
2017-09-08T02:16:54.609Z,78.72
2017-09-08T02:17:54.605Z,79.11
2017-09-08T02:18:54.600Z,78.63
2017-09-08T02:19:54.596Z,78.34
2017-09-08T02:20:54.591Z,78.44
2017-09-08T02:21:54.586Z,78.92
2017-09-08T02:22:54.579Z,78.72
2017-09-08T02:23:54.574Z,78.72
2017-09-08T02:24:54.569Z,78.72
2017-09-08T02:25:54.564Z,78.92
2017-09-08T02:26:54.560Z,78.82
2017-09-08T02:27:54.554Z,78.63
2017-09-08T02:28:54.551Z,78.92
2017-09-08T02:29:54.545Z,78.63
2017-09-08T02:30:54.545Z,78.63
2017-09-08T02:31:54.540Z,79.39
2017-09-08T02:32:54.536Z,79.30
2017-09-08T02:33:54.533Z,79.01
2017-09-08T02:34:54.526Z,79.11
2017-09-08T02:35:54.523Z,79.01
2017-09-08T02:36:54.519Z,78.82
2017-09-08T02:37:54.512Z,78.82
2017-09-08T02:38:54.502Z,79.21
2017-09-08T02:39:54.498Z,79.21
2017-09-08T02:40:54.494Z,79.21
2017-09-08T02:41:54.489Z,79.21
2017-09-08T02:42:54.486Z,78.82
2017-09-08T02:43:54.482Z,79.21
2017-09-08T02:44:54.475Z,78.92
2017-09-08T02:45:54.472Z,79.01
2017-09-08T02:46:54.470Z,78.82
2017-09-08T02:47:54.466Z,79.01
2017-09-08T02:48:54.461Z,79.21
2017-09-08T02:49:54.457Z,79.21
2017-09-08T02:50:54.451Z,79.39
2017-09-08T02:51:54.446Z,79.01
2017-09-08T02:52:54.442Z,79.49
2017-09-08T02:53:54.440Z,79.21
2017-09-08T02:54:54.428Z,79.21
2017-09-08T02:55:54.424Z,79.39
2017-09-08T02:56:54.420Z,79.11
2017-09-08T02:57:54.415Z,79.21
2017-09-08T02:58:54.411Z,79.11
2017-09-08T02:59:54.406Z,79.49
2017-09-08T03:00:54.401Z,79.21
2017-09-08T03:01:54.396Z,79.39
2017-09-08T03:02:54.395Z,79.11
2017-09-08T03:03:54.391Z,79.21
2017-09-08T03:04:54.386Z,79.39
2017-09-08T03:05:54.381Z,79.01
2017-09-08T03:06:54.377Z,79.01
2017-09-08T03:07:54.371Z,79.39
2017-09-08T03:08:54.369Z,79.11
2017-09-08T03:09:54.365Z,79.11
2017-09-08T03:10:54.353Z,79.30
2017-09-08T03:11:54.349Z,79.01
2017-09-08T03:12:54.345Z,79.39
2017-09-08T03:13:54.341Z,79.59
2017-09-08T03:14:54.334Z,79.59
2017-09-08T03:15:54.330Z,79.68
2017-09-08T03:16:54.327Z,79.68
2017-09-08T03:17:54.321Z,79.49
2017-09-08T03:18:54.319Z,79.49
2017-09-08T03:19:54.317Z,79.59
2017-09-08T03:20:54.310Z,79.59
2017-09-08T03:21:54.307Z,79.78
2017-09-08T03:22:54.297Z,79.68
2017-09-08T03:23:54.292Z,80.16
2017-09-08T03:24:54.289Z,79.68
2017-09-08T03:25:54.283Z,79.68
2017-09-08T03:26:54.282Z,79.68
2017-09-08T03:27:54.280Z,80.26
2017-09-08T03:28:54.273Z,80.16
2017-09-08T03:29:54.268Z,80.07
2017-09-08T03:30:54.264Z,79.68
2017-09-08T03:31:54.259Z,79.88
2017-09-08T03:32:54.254Z,80.07
2017-09-08T03:33:54.250Z,79.78
2017-09-08T03:34:54.240Z,79.68
2017-09-08T03:35:54.237Z,79.97
2017-09-08T03:36:54.231Z,79.78
2017-09-08T03:37:54.228Z,79.68
2017-09-08T03:38:54.221Z,79.68
2017-09-08T03:39:54.218Z,80.07
2017-09-08T03:40:54.212Z,80.35
2017-09-08T03:41:54.208Z,80.07
2017-09-08T03:42:54.207Z,79.88
2017-09-08T03:43:54.219Z,79.97
2017-09-08T03:44:54.197Z,80.16
2017-09-08T03:45:54.193Z,79.97
2017-09-08T03:46:54.187Z,80.26
2017-09-08T03:47:54.192Z,80.35
2017-09-08T03:48:54.177Z,79.97
2017-09-08T03:49:54.175Z,79.59
2017-09-08T03:50:54.164Z,80.16
2017-09-08T03:51:54.162Z,79.88
2017-09-08T03:52:54.155Z,79.88
2017-09-08T03:53:54.153Z,80.26
2017-09-08T03:54:54.145Z,79.97
2017-09-08T03:55:54.142Z,80.16
2017-09-08T03:56:54.137Z,79.88
2017-09-08T03:57:54.134Z,80.26
2017-09-08T03:58:54.131Z,79.68
2017-09-08T03:59:54.126Z,80.16
2017-09-08T04:00:54.121Z,80.07
2017-09-08T04:01:54.117Z,79.97
2017-09-08T04:02:54.111Z,79.97
2017-09-08T04:03:54.108Z,80.07
2017-09-08T04:04:54.102Z,80.07
2017-09-08T04:05:54.098Z,80.26
2017-09-08T04:06:54.089Z,80.07
2017-09-08T04:07:54.083Z,80.16
2017-09-08T04:08:54.080Z,79.97
2017-09-08T04:09:54.075Z,80.07
2017-09-08T04:10:54.069Z,79.68
2017-09-08T04:11:54.065Z,79.97
2017-09-08T04:12:54.061Z,79.97
2017-09-08T04:13:54.056Z,80.03
2017-09-08T04:14:54.059Z,80.64
2017-09-08T04:15:54.051Z,80.74
2017-09-08T04:16:54.046Z,80.45
2017-09-08T04:17:54.043Z,80.89
2017-09-08T04:18:54.035Z,80.79
2017-09-08T04:19:54.030Z,80.70
2017-09-08T04:20:54.026Z,80.55
2017-09-08T04:21:54.021Z,80.45
2017-09-08T04:22:54.012Z,80.41
2017-09-08T04:23:54.007Z,80.64
2017-09-08T04:24:54.003Z,81.12
2017-09-08T04:25:54.005Z,81.22
2017-09-08T04:26:53.998Z,80.79
2017-09-08T04:27:53.992Z,80.99
2017-09-08T04:28:53.987Z,80.89
2017-09-08T04:29:53.984Z,80.99
2017-09-08T04:30:53.975Z,80.89
2017-09-08T04:31:53.970Z,81.18
2017-09-08T04:32:53.965Z,81.02
2017-09-08T04:33:53.961Z,80.89
2017-09-08T04:34:53.955Z,81.31
2017-09-08T04:35:53.950Z,81.37
2017-09-08T04:36:53.945Z,81.02
2017-09-08T04:37:53.942Z,81.22
2017-09-08T04:38:53.940Z,80.89
2017-09-08T04:39:53.935Z,81.12
2017-09-08T04:40:53.930Z,80.55
2017-09-08T04:41:53.927Z,80.64
2017-09-08T04:42:53.922Z,80.55
2017-09-08T04:43:53.916Z,80.41
2017-09-08T04:44:53.913Z,80.64
2017-09-08T04:45:53.907Z,80.51
2017-09-08T04:46:53.897Z,80.60
2017-09-08T04:47:53.894Z,80.70
2017-09-08T04:48:53.887Z,80.70
2017-09-08T04:49:53.883Z,80.55
2017-09-08T04:50:53.879Z,80.93
2017-09-08T04:51:53.873Z,80.70
2017-09-08T04:52:53.868Z,80.16
2017-09-08T04:53:53.870Z,80.83
2017-09-08T04:54:53.863Z,80.83
2017-09-08T04:55:53.859Z,80.26
2017-09-08T04:56:53.853Z,80.64
2017-09-08T04:57:53.850Z,80.74
2017-09-08T04:58:53.844Z,80.35
2017-09-08T04:59:53.839Z,80.83
2017-09-08T05:00:53.834Z,80.55
2017-09-08T05:01:53.830Z,81.31
2017-09-08T05:02:53.820Z,80.55
2017-09-08T05:03:53.816Z,80.93
2017-09-08T05:04:53.811Z,80.64
2017-09-08T05:05:53.808Z,80.26
2017-09-08T05:06:53.802Z,80.83
2017-09-08T05:07:53.797Z,80.55
2017-09-08T05:08:53.792Z,80.93
2017-09-08T05:09:53.808Z,80.74
2017-09-08T05:10:53.786Z,80.74
2017-09-08T05:11:53.783Z,80.64
2017-09-08T05:12:53.778Z,80.83
2017-09-08T05:13:53.773Z,80.26
2017-09-08T05:14:53.767Z,80.74
2017-09-08T05:15:53.762Z,80.64
2017-09-08T05:16:53.758Z,80.35
2017-09-08T05:17:53.754Z,80.64
2017-09-08T05:18:53.743Z,80.64
2017-09-08T05:19:53.739Z,80.99
2017-09-08T05:20:53.734Z,81.56
2017-09-08T05:21:53.730Z,81.37
2017-09-08T05:22:53.725Z,81.27
2017-09-08T05:23:53.720Z,81.08
2017-09-08T05:24:53.736Z,81.08
2017-09-08T05:25:53.711Z,81.18
2017-09-08T05:26:53.710Z,81.18
2017-09-08T05:27:53.704Z,81.37
2017-09-08T05:28:53.701Z,81.27
2017-09-08T05:29:53.695Z,80.70
2017-09-08T05:30:53.685Z,80.89
2017-09-08T05:31:53.682Z,81.08
2017-09-08T05:32:53.676Z,81.27
2017-09-08T05:33:53.673Z,81.18
2017-09-08T05:34:53.671Z,81.18
2017-09-08T05:35:53.668Z,81.08
2017-09-08T05:36:53.661Z,80.70
2017-09-08T05:37:53.657Z,81.08
2017-09-08T05:38:53.651Z,80.99
2017-09-08T05:39:53.646Z,80.99
2017-09-08T05:40:53.642Z,80.99
2017-09-08T05:41:53.637Z,81.75
2017-09-08T05:42:53.627Z,81.27
2017-09-08T05:43:53.622Z,81.46
2017-09-08T05:44:53.619Z,81.46
2017-09-08T05:45:53.612Z,82.04
2017-09-08T05:46:53.608Z,82.14
2017-09-08T05:47:53.602Z,82.04
2017-09-08T05:48:53.621Z,82.32
2017-09-08T05:49:53.593Z,82.14
2017-09-08T05:50:53.592Z,81.46
2017-09-08T05:51:53.588Z,81.27
2017-09-08T05:52:53.582Z,81.27
2017-09-08T05:53:53.579Z,81.18
2017-09-08T05:54:53.572Z,80.79
2017-09-08T05:55:53.567Z,80.79
2017-09-08T05:56:53.563Z,81.27
2017-09-08T05:57:53.558Z,81.46
2017-09-08T05:58:53.548Z,81.37
2017-09-08T05:59:53.543Z,80.99
2017-09-08T06:00:53.539Z,81.31
2017-09-08T06:01:53.534Z,80.64
2017-09-08T06:02:53.530Z,80.89
2017-09-08T06:03:53.524Z,80.16
2017-09-08T06:04:53.521Z,80.07
2017-09-08T06:05:53.514Z,80.07
2017-09-08T06:06:53.513Z,80.16
2017-09-08T06:07:53.509Z,79.68
2017-09-08T06:08:53.504Z,79.78
2017-09-08T06:09:53.500Z,79.59
2017-09-08T06:10:53.496Z,79.59
2017-09-08T06:11:53.490Z,79.21
2017-09-08T06:12:53.487Z,79.01
2017-09-08T06:13:53.480Z,79.21
2017-09-08T06:14:53.471Z,78.82
2017-09-08T06:15:53.467Z,78.82
2017-09-08T06:16:53.462Z,78.92
2017-09-08T06:17:53.457Z,78.53
2017-09-08T06:18:53.458Z,78.72
2017-09-08T06:19:53.447Z,79.39
2017-09-08T06:20:53.443Z,78.63
2017-09-08T06:21:53.439Z,78.44
2017-09-08T06:22:53.437Z,78.82
2017-09-08T06:23:53.432Z,78.63
2017-09-08T06:24:53.434Z,78.82
2017-09-08T06:25:53.424Z,78.72
2017-09-08T06:26:53.419Z,78.63
2017-09-08T06:27:53.415Z,78.72
2017-09-08T06:28:53.409Z,78.44
2017-09-08T06:29:53.410Z,78.47
2017-09-08T06:30:53.396Z,78.63
2017-09-08T06:31:53.391Z,78.57
2017-09-08T06:32:53.387Z,78.86
2017-09-08T06:33:53.384Z,79.05
2017-09-08T06:34:53.377Z,78.53
2017-09-08T06:35:53.374Z,78.53
2017-09-08T06:36:53.369Z,78.53
2017-09-08T06:37:53.368Z,78.05
2017-09-08T06:38:53.363Z,78.25
2017-09-08T06:39:53.359Z,78.53
2017-09-08T06:40:53.354Z,78.47
2017-09-08T06:41:53.350Z,78.47
2017-09-08T06:42:53.345Z,78.34
2017-09-08T06:43:53.344Z,78.15
2017-09-08T06:44:53.337Z,77.86
2017-09-08T06:45:53.333Z,78.28
2017-09-08T06:46:53.324Z,78.25
2017-09-08T06:47:53.318Z,77.95
2017-09-08T06:48:53.315Z,78.47
2017-09-08T06:49:53.311Z,78.44
2017-09-08T06:50:53.305Z,78.34
2017-09-08T06:51:53.300Z,78.47
2017-09-08T06:52:53.297Z,78.44
2017-09-08T06:53:53.294Z,78.47
2017-09-08T06:54:53.290Z,78.38
2017-09-08T06:55:53.287Z,78.47
2017-09-08T06:56:53.282Z,78.38
2017-09-08T06:57:53.278Z,77.95
2017-09-08T06:58:53.273Z,78.00
2017-09-08T06:59:53.269Z,77.95
2017-09-08T07:00:53.266Z,78.00
2017-09-08T07:01:53.260Z,78.57
2017-09-08T07:02:53.252Z,78.57
2017-09-08T07:03:53.246Z,78.57
2017-09-08T07:04:53.242Z,78.28
2017-09-08T07:05:53.240Z,78.00
2017-09-08T07:06:53.233Z,78.00
2017-09-08T07:07:53.229Z,78.00
2017-09-08T07:08:53.224Z,78.38
2017-09-08T07:09:53.219Z,78.19
2017-09-08T07:10:53.223Z,78.09
2017-09-08T07:11:53.215Z,77.80
2017-09-08T07:12:53.210Z,77.80
2017-09-08T07:13:53.208Z,78.00
2017-09-08T07:14:53.201Z,78.00
2017-09-08T07:15:53.197Z,78.00
2017-09-08T07:16:53.192Z,78.28
2017-09-08T07:17:53.188Z,77.61
2017-09-08T07:18:53.178Z,77.71
2017-09-08T07:19:53.176Z,77.71
2017-09-08T07:20:53.171Z,77.90
2017-09-08T07:21:53.166Z,77.61
2017-09-08T07:22:53.161Z,77.42
2017-09-08T07:23:53.157Z,77.71
2017-09-08T07:24:53.153Z,76.94
2017-09-08T07:25:53.151Z,77.33
2017-09-08T07:26:53.149Z,76.84
2017-09-08T07:27:53.144Z,76.56
2017-09-08T07:28:53.141Z,76.37
2017-09-08T07:29:53.136Z,76.65
2017-09-08T07:30:53.133Z,76.46
2017-09-08T07:31:53.128Z,76.27
2017-09-08T07:32:53.123Z,75.89
2017-09-08T07:33:53.121Z,76.21
2017-09-08T07:34:53.111Z,76.07
2017-09-08T07:35:53.106Z,76.17
2017-09-08T07:36:53.102Z,76.17
2017-09-08T07:37:53.099Z,75.89
2017-09-08T07:38:53.097Z,75.92
2017-09-08T07:39:53.095Z,76.07
2017-09-08T07:40:53.089Z,75.89
2017-09-08T07:41:53.085Z,75.70
2017-09-08T07:42:53.077Z,76.31
2017-09-08T07:43:53.072Z,75.98
2017-09-08T07:44:53.068Z,76.07
2017-09-08T07:45:53.065Z,75.89
2017-09-08T07:46:53.060Z,75.79
2017-09-08T07:47:53.056Z,75.89
2017-09-08T07:48:53.052Z,75.70
2017-09-08T07:49:53.050Z,75.79
2017-09-08T07:50:53.047Z,75.63
2017-09-08T07:51:53.043Z,76.12
2017-09-08T07:52:53.040Z,76.31
2017-09-08T07:53:53.034Z,75.92
2017-09-08T07:54:53.031Z,76.31
2017-09-08T07:55:53.026Z,76.21
2017-09-08T07:56:53.047Z,75.82
2017-09-08T07:57:53.018Z,76.31
2017-09-08T07:58:53.009Z,75.82
2017-09-08T07:59:53.006Z,76.69
2017-09-08T08:00:53.000Z,76.40
2017-09-08T08:01:52.997Z,77.26
2017-09-08T08:02:52.991Z,77.65
2017-09-08T08:03:52.988Z,77.17
2017-09-08T08:04:52.985Z,77.04
2017-09-08T08:05:52.980Z,77.42
2017-09-08T08:06:52.979Z,78.19
2017-09-08T08:07:52.976Z,78.00
2017-09-08T08:08:52.973Z,78.38
2017-09-08T08:09:52.968Z,78.77
2017-09-08T08:10:52.963Z,78.57
2017-09-08T08:11:52.959Z,78.57
2017-09-08T08:12:52.956Z,78.47
2017-09-08T08:13:52.950Z,78.38
2017-09-08T08:14:52.942Z,78.96
2017-09-08T08:15:52.937Z,79.14
2017-09-08T08:16:52.934Z,78.96
2017-09-08T08:17:52.932Z,79.53
2017-09-08T08:18:52.926Z,78.86
2017-09-08T08:19:52.921Z,78.96
2017-09-08T08:20:52.917Z,79.82
2017-09-08T08:21:52.913Z,80.20
2017-09-08T08:22:52.913Z,79.91
2017-09-08T08:23:52.908Z,79.82
2017-09-08T08:24:52.907Z,80.49
2017-09-08T08:25:52.907Z,80.97
2017-09-08T08:26:52.901Z,81.16
2017-09-08T08:27:52.897Z,81.45
2017-09-08T08:28:52.888Z,81.64
2017-09-08T08:29:52.884Z,80.97
2017-09-08T08:30:52.874Z,82.31
2017-09-08T08:31:52.870Z,81.35
2017-09-08T08:32:52.866Z,80.97
2017-09-08T08:33:52.862Z,80.97
2017-09-08T08:34:52.856Z,81.16
2017-09-08T08:35:52.853Z,81.26
2017-09-08T08:36:52.848Z,81.26
2017-09-08T08:37:52.844Z,80.58
2017-09-08T08:38:52.844Z,80.97
2017-09-08T08:39:52.839Z,81.45
2017-09-08T08:40:52.835Z,80.49
2017-09-08T08:41:52.831Z,79.91
2017-09-08T08:42:52.826Z,80.20
2017-09-08T08:43:52.817Z,80.11
2017-09-08T08:44:52.814Z,80.01
2017-09-08T08:45:52.808Z,79.53
2017-09-08T08:46:52.808Z,79.24
2017-09-08T08:47:52.805Z,79.14
2017-09-08T08:48:52.800Z,78.99
2017-09-08T08:49:52.796Z,79.05
2017-09-08T08:50:52.791Z,79.05
2017-09-08T08:51:52.787Z,78.90
2017-09-08T08:52:52.782Z,79.47
2017-09-08T08:53:52.779Z,78.61
2017-09-08T08:54:52.769Z,78.99
2017-09-08T08:55:52.765Z,78.42
2017-09-08T08:56:52.761Z,78.03
2017-09-08T08:57:52.758Z,77.56
2017-09-08T08:58:52.752Z,77.65
2017-09-08T08:59:52.750Z,77.01
2017-09-08T09:00:52.750Z,77.17
2017-09-08T09:01:52.741Z,76.40
2017-09-08T09:02:52.741Z,76.44
2017-09-08T09:03:52.737Z,76.69
2017-09-08T09:04:52.732Z,76.50
2017-09-08T09:05:52.731Z,76.44
2017-09-08T09:06:52.723Z,77.84
2017-09-08T09:07:52.720Z,77.69
2017-09-08T09:08:52.716Z,77.08
2017-09-08T09:09:52.713Z,76.79
2017-09-08T09:10:52.704Z,76.54
2017-09-08T09:11:52.701Z,76.64
2017-09-08T09:12:52.696Z,76.82
2017-09-08T09:13:52.692Z,76.44
2017-09-08T09:14:52.688Z,76.44
2017-09-08T09:15:52.686Z,76.44
2017-09-08T09:16:52.680Z,76.12
2017-09-08T09:17:52.679Z,76.25
2017-09-08T09:18:52.675Z,75.87
2017-09-08T09:19:52.672Z,76.73
2017-09-08T09:20:52.670Z,75.96
2017-09-08T09:21:52.665Z,76.15
2017-09-08T09:22:52.660Z,76.25
2017-09-08T09:23:52.658Z,75.20
2017-09-08T09:24:52.653Z,75.29
2017-09-08T09:25:52.649Z,75.29
2017-09-08T09:26:52.643Z,75.29
2017-09-08T09:27:52.637Z,75.10
2017-09-08T09:28:52.635Z,74.62
2017-09-08T09:29:52.630Z,74.62
2017-09-08T09:30:52.625Z,74.33
2017-09-08T09:31:52.622Z,74.46
2017-09-08T09:32:52.620Z,74.33
2017-09-08T09:33:52.614Z,74.33
2017-09-08T09:34:52.616Z,73.75
2017-09-08T09:35:52.611Z,74.08
2017-09-08T09:36:52.608Z,74.04
2017-09-08T09:37:52.605Z,74.27
2017-09-08T09:38:52.601Z,74.08
2017-09-08T09:39:52.596Z,74.04
2017-09-08T09:40:52.594Z,74.46
2017-09-08T09:41:52.590Z,76.06
2017-09-08T09:42:52.581Z,76.73
2017-09-08T09:43:52.579Z,77.31
2017-09-08T09:44:52.580Z,77.21
2017-09-08T09:45:52.570Z,78.17
2017-09-08T09:46:52.572Z,77.69
2017-09-08T09:47:52.567Z,78.23
2017-09-08T09:48:52.563Z,78.70
2017-09-08T09:49:52.562Z,78.61
2017-09-08T09:50:52.552Z,78.65
2017-09-08T09:51:52.550Z,79.13
2017-09-08T09:52:52.544Z,78.94
2017-09-08T09:53:52.542Z,79.32
2017-09-08T09:54:52.537Z,79.32
2017-09-08T09:55:52.532Z,79.80
2017-09-08T09:56:52.532Z,79.13
2017-09-08T09:57:52.529Z,79.80
2017-09-08T09:58:52.525Z,79.52
2017-09-08T09:59:52.522Z,79.13
2017-09-08T10:00:52.517Z,79.71
2017-09-08T10:01:52.514Z,79.80
2017-09-08T10:02:52.510Z,79.61
2017-09-08T10:03:52.507Z,79.99
2017-09-08T10:04:52.504Z,80.38
2017-09-08T10:05:52.502Z,79.90
2017-09-08T10:06:52.496Z,80.09
2017-09-08T10:07:52.487Z,80.28
2017-09-08T10:08:52.487Z,79.99
2017-09-08T10:09:52.481Z,80.19
2017-09-08T10:10:52.484Z,80.38
2017-09-08T10:11:52.471Z,80.38
2017-09-08T10:12:52.468Z,80.28
2017-09-08T10:13:52.465Z,80.66
2017-09-08T10:14:52.464Z,80.91
2017-09-08T10:15:52.466Z,80.66
2017-09-08T10:16:52.458Z,80.38
2017-09-08T10:17:52.454Z,81.05
2017-09-08T10:18:52.457Z,80.76
2017-09-08T10:19:52.455Z,80.09
2017-09-08T10:20:52.450Z,80.28
2017-09-08T10:21:52.438Z,80.09
2017-09-08T10:22:52.429Z,79.61
2017-09-08T10:23:52.431Z,79.61
2017-09-08T10:24:52.456Z,79.61
2017-09-08T10:25:52.423Z,79.61
2017-09-08T10:26:52.415Z,79.80
2017-09-08T10:27:52.412Z,79.52
2017-09-08T10:28:52.407Z,79.42
2017-09-08T10:29:52.406Z,79.32
2017-09-08T10:30:52.405Z,79.52
2017-09-08T10:31:52.400Z,79.52
2017-09-08T10:32:52.398Z,79.13
2017-09-08T10:33:52.393Z,79.42
2017-09-08T10:34:52.389Z,79.52
2017-09-08T10:35:52.385Z,79.32
2017-09-08T10:36:52.383Z,79.71
2017-09-08T10:37:52.379Z,80.09
2017-09-08T10:38:52.373Z,80.19
2017-09-08T10:39:52.366Z,80.66
2017-09-08T10:40:52.363Z,81.43
2017-09-08T10:41:52.362Z,82.68
2017-09-08T10:42:52.356Z,83.12
2017-09-08T10:43:52.352Z,83.89
2017-09-08T10:44:52.348Z,85.24
2017-09-08T10:45:52.344Z,86.34
2017-09-08T10:46:52.344Z,87.59
2017-09-08T10:47:52.341Z,87.98
2017-09-08T10:48:52.337Z,89.41
2017-09-08T10:49:52.338Z,89.79
2017-09-08T10:50:52.326Z,90.37
2017-09-08T10:51:52.322Z,91.33
2017-09-08T10:52:52.317Z,91.52
2017-09-08T10:53:52.314Z,92.68
2017-09-08T10:54:52.313Z,93.54
2017-09-08T10:55:52.311Z,93.40
2017-09-08T10:56:52.305Z,93.97
2017-09-08T10:57:52.302Z,94.07
2017-09-08T10:58:52.299Z,94.35
2017-09-08T10:59:52.297Z,95.31
2017-09-08T11:00:52.290Z,95.60
2017-09-08T11:01:52.286Z,95.98
2017-09-08T11:02:52.277Z,97.14
2017-09-08T11:03:52.275Z,97.14
2017-09-08T11:04:52.269Z,97.23
2017-09-08T11:05:52.266Z,97.14
2017-09-08T11:06:52.260Z,97.61
2017-09-08T11:07:52.257Z,98.14
2017-09-08T11:08:52.255Z,98.43
2017-09-08T11:09:52.248Z,98.72
2017-09-08T11:10:52.248Z,99.29
2017-09-08T11:11:52.246Z,99.87
2017-09-08T11:12:52.240Z,99.96
2017-09-08T11:13:52.237Z,99.99
2017-09-08T11:14:52.231Z,99.99
2017-09-08T11:15:52.229Z,99.99
2017-09-08T11:16:52.223Z,99.99
2017-09-08T11:17:52.219Z,99.99
2017-09-08T11:18:52.215Z,99.99
2017-09-08T11:19:52.204Z,99.99
2017-09-08T11:20:52.202Z,99.96
2017-09-08T11:21:52.196Z,99.99
2017-09-08T11:22:52.191Z,99.99
2017-09-08T11:23:52.186Z,99.99
2017-09-08T11:24:52.183Z,99.99
2017-09-08T11:25:52.179Z,99.99
2017-09-08T11:26:52.177Z,99.99
2017-09-08T11:27:52.172Z,99.99
2017-09-08T11:28:52.169Z,99.99
2017-09-08T11:29:52.163Z,99.99
2017-09-08T11:30:52.158Z,99.99
2017-09-08T11:31:52.154Z,99.99
2017-09-08T11:32:52.149Z,99.99
2017-09-08T11:33:52.144Z,99.99
2017-09-08T11:34:52.135Z,99.99
2017-09-08T11:35:52.130Z,99.99
2017-09-08T11:36:52.126Z,99.99
2017-09-08T11:37:52.122Z,99.99
2017-09-08T11:38:52.117Z,99.99
2017-09-08T11:39:52.110Z,99.99
2017-09-08T11:40:52.107Z,99.99
2017-09-08T11:41:52.101Z,99.99
2017-09-08T11:42:52.100Z,99.99
2017-09-08T11:43:52.096Z,99.99
2017-09-08T11:44:52.090Z,99.99
2017-09-08T11:45:52.087Z,99.99
2017-09-08T11:46:52.081Z,99.99
2017-09-08T11:47:52.075Z,99.99
2017-09-08T11:48:52.071Z,99.99
2017-09-08T11:49:52.065Z,99.99
2017-09-08T11:50:52.057Z,99.99
2017-09-08T11:51:52.053Z,99.99
2017-09-08T11:52:52.046Z,99.99
2017-09-08T11:53:52.042Z,99.99
2017-09-08T11:54:52.040Z,99.99
2017-09-08T11:55:52.034Z,99.99
2017-09-08T11:56:52.031Z,99.99
2017-09-08T11:57:52.027Z,99.99
2017-09-08T11:58:52.015Z,99.99
2017-09-08T11:59:52.012Z,99.99
2017-09-08T12:00:52.006Z,99.99
2017-09-08T12:01:52.001Z,99.99
2017-09-08T12:02:51.995Z,99.99
2017-09-08T12:03:51.991Z,99.99
2017-09-08T12:04:51.987Z,99.99
2017-09-08T12:05:51.981Z,99.99
2017-09-08T12:06:51.979Z,99.99
2017-09-08T12:07:51.975Z,99.99
2017-09-08T12:08:51.971Z,99.99
2017-09-08T12:09:51.966Z,99.99
2017-09-08T12:10:51.959Z,99.99
2017-09-08T12:11:51.954Z,99.99
2017-09-08T12:12:51.950Z,99.99
2017-09-08T12:13:51.946Z,99.99
2017-09-08T12:14:51.941Z,99.99
2017-09-08T12:15:51.931Z,99.99
2017-09-08T12:16:51.926Z,99.99
2017-09-08T12:17:51.922Z,99.99
2017-09-08T12:18:51.917Z,99.99
2017-09-08T12:19:51.912Z,99.99
2017-09-08T12:20:51.909Z,99.99
2017-09-08T12:21:51.903Z,99.99
2017-09-08T12:22:51.902Z,99.99
2017-09-08T12:23:51.896Z,99.99
2017-09-08T12:24:51.893Z,99.99
2017-09-08T12:25:51.888Z,99.99
2017-09-08T12:26:51.882Z,99.99
2017-09-08T12:27:51.880Z,99.99
2017-09-08T12:28:51.873Z,99.99
2017-09-08T12:29:51.869Z,99.99
2017-09-08T12:30:51.859Z,99.99
2017-09-08T12:31:51.863Z,99.99
2017-09-08T12:32:51.851Z,99.99
2017-09-08T12:33:51.856Z,99.99
2017-09-08T12:34:51.840Z,99.99
2017-09-08T12:35:51.836Z,99.99
2017-09-08T12:36:51.833Z,99.99
2017-09-08T12:37:51.827Z,99.99
2017-09-08T12:38:51.826Z,99.99
2017-09-08T12:39:51.821Z,99.99
2017-09-08T12:40:51.817Z,99.99
2017-09-08T12:41:51.812Z,99.99
2017-09-08T12:42:51.811Z,99.99
2017-09-08T12:43:51.802Z,99.99
2017-09-08T12:44:51.799Z,99.99
2017-09-08T12:45:51.794Z,99.99
2017-09-08T12:46:51.784Z,99.99
2017-09-08T12:47:51.782Z,99.99
2017-09-08T12:48:51.777Z,99.99
2017-09-08T12:49:51.775Z,99.99
2017-09-08T12:50:51.767Z,99.99
2017-09-08T12:51:51.761Z,99.99
2017-09-08T12:52:51.757Z,99.99